createdAt,value
2019-01-28T00:00:25.275Z,-1.93
2019-01-28T00:02:52.828Z,-2.03
2019-01-28T00:05:20.221Z,-1.81
2019-01-28T00:07:47.611Z,-2.11
2019-01-28T00:10:15.015Z,-2.11
2019-01-28T00:12:42.347Z,-2.04
2019-01-28T00:15:09.721Z,-2.05
2019-01-28T00:17:37.338Z,-2.13
2019-01-28T00:20:05.425Z,-2.08
2019-01-28T00:22:32.788Z,-2.14
2019-01-28T00:25:00.215Z,-2.06
2019-01-28T00:27:27.599Z,-2.03
2019-01-28T00:29:54.947Z,-2.02
2019-01-28T00:32:22.329Z,-2.02
2019-01-28T00:34:49.719Z,-2.02
2019-01-28T00:37:17.068Z,-1.99
2019-01-28T00:39:44.467Z,-2.00
2019-01-28T00:42:12.030Z,-1.98
2019-01-28T00:44:39.427Z,-2.07
2019-01-28T00:47:06.886Z,-2.07
2019-01-28T00:49:34.246Z,-2.07
2019-01-28T00:52:01.719Z,-2.09
2019-01-28T00:54:29.066Z,-2.01
2019-01-28T00:56:56.430Z,-2.04
2019-01-28T00:59:23.847Z,-2.00
2019-01-28T01:01:51.228Z,-1.97
2019-01-28T01:04:18.660Z,-1.94
2019-01-28T01:06:46.233Z,-1.90
2019-01-28T01:09:13.650Z,-1.90
2019-01-28T01:11:41.050Z,-2.00
2019-01-28T01:14:08.431Z,-1.97
2019-01-28T01:16:35.785Z,-1.95
2019-01-28T01:19:03.518Z,-1.93
2019-01-28T01:21:30.934Z,-2.02
2019-01-28T01:23:58.309Z,-1.84
2019-01-28T01:26:25.746Z,-1.75
2019-01-28T01:28:53.127Z,-1.85
2019-01-28T01:31:20.887Z,-1.89
2019-01-28T01:33:48.301Z,-1.87
2019-01-28T01:36:15.832Z,-1.88
2019-01-28T01:38:43.311Z,-1.83
2019-01-28T01:41:10.666Z,-1.82
2019-01-28T01:43:37.986Z,-1.88
2019-01-28T01:46:05.387Z,-1.83
2019-01-28T01:48:32.811Z,-1.90
2019-01-28T01:51:00.239Z,-1.88
2019-01-28T01:53:27.622Z,-1.85
2019-01-28T01:55:54.966Z,-1.83
2019-01-28T01:58:22.326Z,-1.86
2019-01-28T02:00:49.735Z,-1.89
2019-01-28T02:03:17.101Z,-1.90
2019-01-28T02:05:44.447Z,-1.88
2019-01-28T02:08:11.848Z,-1.93
2019-01-28T02:10:39.286Z,-1.89
2019-01-28T02:13:06.687Z,-1.81
2019-01-28T02:15:34.155Z,-1.81
2019-01-28T02:18:01.547Z,-1.88
2019-01-28T02:20:28.921Z,-1.82
2019-01-28T02:22:56.366Z,-1.85
2019-01-28T02:25:23.747Z,-1.86
2019-01-28T02:27:51.107Z,-1.86
2019-01-28T02:30:18.531Z,-1.89
2019-01-28T02:32:45.916Z,-1.89
2019-01-28T02:35:13.311Z,-1.85
2019-01-28T02:37:40.809Z,-1.77
2019-01-28T02:40:11.289Z,-1.76
2019-01-28T02:42:38.650Z,-1.74
2019-01-28T02:45:07.711Z,-1.70
2019-01-28T02:47:35.093Z,-1.69
2019-01-28T02:50:02.468Z,-1.84
2019-01-28T02:52:29.972Z,-1.94
2019-01-28T02:54:57.306Z,-1.86
2019-01-28T02:57:24.690Z,-1.89
2019-01-28T02:59:52.087Z,-1.69
2019-01-28T03:02:19.466Z,-1.79
2019-01-28T03:04:46.867Z,-1.81
2019-01-28T03:07:14.247Z,-1.74
2019-01-28T03:09:41.610Z,-1.92
2019-01-28T03:12:09.111Z,-1.94
2019-01-28T03:14:36.489Z,-1.96
2019-01-28T03:17:10.103Z,-1.87
2019-01-28T03:19:38.365Z,-1.84
2019-01-28T03:22:05.786Z,-1.45
2019-01-28T03:24:33.146Z,-1.12
2019-01-28T03:27:00.587Z,-1.20
2019-01-28T03:29:27.955Z,-1.61
2019-01-28T03:31:55.314Z,-1.81
2019-01-28T03:34:22.728Z,-1.84
2019-01-28T03:36:50.071Z,-1.56
2019-01-28T03:39:17.502Z,-1.83
2019-01-28T03:41:44.950Z,-1.87
2019-01-28T03:44:12.351Z,-1.87
2019-01-28T03:46:39.797Z,-1.84
2019-01-28T03:49:07.147Z,-1.85
2019-01-28T03:51:34.733Z,-1.84
2019-01-28T03:54:02.379Z,-2.15
2019-01-28T03:56:29.755Z,-1.94
2019-01-28T03:58:57.230Z,-1.90
2019-01-28T04:01:26.528Z,-2.12
2019-01-28T04:03:53.968Z,-2.02
2019-01-28T04:06:21.400Z,-1.96
2019-01-28T04:08:48.766Z,-1.91
2019-01-28T04:11:16.167Z,-1.90
2019-01-28T04:13:43.646Z,-1.97
2019-01-28T04:16:11.010Z,-1.91
2019-01-28T04:18:38.408Z,-1.99
2019-01-28T04:21:05.928Z,-2.00
2019-01-28T04:23:33.294Z,-1.89
2019-01-28T04:26:00.645Z,-1.85
2019-01-28T04:28:28.005Z,-1.99
2019-01-28T04:30:55.371Z,-1.97
2019-01-28T04:33:22.776Z,-1.97
2019-01-28T04:35:50.175Z,-1.96
2019-01-28T04:38:17.549Z,-2.02
2019-01-28T04:40:44.934Z,-2.10
2019-01-28T04:43:12.373Z,-2.20
2019-01-28T04:45:39.731Z,-2.20
2019-01-28T04:48:07.107Z,-2.22
2019-01-28T04:50:34.483Z,-2.04
2019-01-28T04:53:01.872Z,-2.17
2019-01-28T04:55:29.286Z,-2.36
2019-01-28T04:57:56.687Z,-2.34
2019-01-28T05:00:24.716Z,-2.22
2019-01-28T05:02:52.213Z,-2.33
2019-01-28T05:05:19.642Z,-2.30
2019-01-28T05:07:46.990Z,-2.39
2019-01-28T05:10:15.137Z,-2.34
2019-01-28T05:12:42.548Z,-2.42
2019-01-28T05:15:10.666Z,-2.38
2019-01-28T05:17:38.036Z,-2.39
2019-01-28T05:20:07.437Z,-2.27
2019-01-28T05:22:34.823Z,-2.43
2019-01-28T05:25:02.230Z,-2.48
2019-01-28T05:27:29.617Z,-2.57
2019-01-28T05:29:56.992Z,-2.57
2019-01-28T05:32:24.386Z,-2.55
2019-01-28T05:34:51.766Z,-2.56
2019-01-28T05:37:19.187Z,-2.45
2019-01-28T05:39:46.654Z,-2.50
2019-01-28T05:42:14.036Z,-2.64
2019-01-28T05:44:41.415Z,-2.61
2019-01-28T05:47:08.851Z,-2.58
2019-01-28T05:49:36.207Z,-2.55
2019-01-28T05:52:03.682Z,-2.53
2019-01-28T05:54:31.076Z,-2.45
2019-01-28T05:56:58.474Z,-2.31
2019-01-28T05:59:25.848Z,-2.29
2019-01-28T06:01:53.239Z,-2.50
2019-01-28T06:04:20.723Z,-2.80
2019-01-28T06:06:48.106Z,-2.63
2019-01-28T06:09:15.506Z,-2.59
2019-01-28T06:11:42.984Z,-2.22
2019-01-28T06:14:10.423Z,-2.00
2019-01-28T06:16:37.855Z,-1.96
2019-01-28T06:19:05.307Z,-1.96
2019-01-28T06:21:32.687Z,-2.33
2019-01-28T06:24:00.068Z,-2.37
2019-01-28T06:26:27.480Z,-2.41
2019-01-28T06:28:54.836Z,-2.41
2019-01-28T06:31:22.206Z,-2.61
2019-01-28T06:33:49.629Z,-2.57
2019-01-28T06:36:16.966Z,-2.74
2019-01-28T06:38:44.373Z,-2.75
2019-01-28T06:41:11.829Z,-2.82
2019-01-28T06:43:39.253Z,-2.72
2019-01-28T06:46:06.696Z,-2.66
2019-01-28T06:48:34.069Z,-2.70
2019-01-28T06:51:01.428Z,-2.74
2019-01-28T06:53:28.908Z,-2.67
2019-01-28T06:55:56.287Z,-2.57
2019-01-28T06:58:23.666Z,-2.45
2019-01-28T07:00:51.048Z,-2.50
2019-01-28T07:03:18.406Z,-2.74
2019-01-28T07:05:45.770Z,-2.66
2019-01-28T07:08:13.110Z,-2.84
2019-01-28T07:10:40.497Z,-2.70
2019-01-28T07:13:07.844Z,-2.49
2019-01-28T07:15:35.250Z,-2.51
2019-01-28T07:18:02.750Z,-2.47
2019-01-28T07:20:30.828Z,-2.38
2019-01-28T07:22:58.706Z,-2.47
2019-01-28T07:25:26.091Z,-2.53
2019-01-28T07:27:53.640Z,-2.39
2019-01-28T07:30:29.372Z,-2.30
2019-01-28T07:32:56.842Z,-2.63
2019-01-28T07:35:24.337Z,-2.58
2019-01-28T07:37:51.704Z,-2.32
2019-01-28T07:40:19.259Z,-2.30
2019-01-28T07:42:46.619Z,-2.25
2019-01-28T07:45:17.203Z,-2.14
2019-01-28T07:47:44.527Z,-2.15
2019-01-28T07:50:12.174Z,-2.15
2019-01-28T07:52:39.562Z,-2.11
2019-01-28T07:55:07.728Z,-1.78
2019-01-28T07:57:35.192Z,-1.42
2019-01-28T08:00:02.963Z,-1.30
2019-01-28T08:02:30.275Z,-1.44
2019-01-28T08:04:57.718Z,-1.33
2019-01-28T08:07:25.092Z,-1.33
2019-01-28T08:09:52.440Z,-1.56
2019-01-28T08:12:19.820Z,-1.56
2019-01-28T08:14:47.191Z,-1.38
2019-01-28T08:17:14.576Z,-1.38
2019-01-28T08:19:41.985Z,-1.37
2019-01-28T08:22:09.358Z,-1.18
2019-01-28T08:24:36.734Z,-1.14
2019-01-28T08:27:04.281Z,-1.38
2019-01-28T08:29:31.857Z,-1.38
2019-01-28T08:31:59.307Z,-1.11
2019-01-28T08:34:26.924Z,-1.02
2019-01-28T08:36:54.780Z,-0.90
2019-01-28T08:39:22.231Z,-1.10
2019-01-28T08:41:49.561Z,-1.31
2019-01-28T08:44:16.916Z,-1.17
2019-01-28T08:46:44.318Z,-0.96
2019-01-28T08:49:11.655Z,-0.72
2019-01-28T08:51:38.992Z,-0.89
2019-01-28T08:54:06.503Z,-0.74
2019-01-28T08:56:34.072Z,-0.99
2019-01-28T08:59:01.693Z,-0.61
2019-01-28T09:01:29.244Z,-0.85
2019-01-28T09:03:56.825Z,-0.88
2019-01-28T09:06:24.311Z,-0.75
2019-01-28T09:08:51.885Z,-0.65
2019-01-28T09:11:19.445Z,-0.62
2019-01-28T09:13:46.955Z,-0.60
2019-01-28T09:16:14.982Z,-0.51
2019-01-28T09:18:42.491Z,-0.78
2019-01-28T09:21:09.859Z,-0.35
2019-01-28T09:23:37.272Z,-0.44
2019-01-28T09:26:06.527Z,0.06
2019-01-28T09:28:33.957Z,-0.08
2019-01-28T09:31:01.354Z,-0.31
2019-01-28T09:33:28.723Z,-0.15
2019-01-28T09:35:56.066Z,-0.34
2019-01-28T09:38:23.518Z,-0.98
2019-01-28T09:40:50.877Z,-0.72
2019-01-28T09:43:18.687Z,-0.40
2019-01-28T09:45:46.051Z,-0.32
2019-01-28T09:48:14.815Z,0.09
2019-01-28T09:50:43.935Z,-0.48
2019-01-28T09:53:12.100Z,0.09
2019-01-28T09:55:39.449Z,0.53
2019-01-28T09:58:06.998Z,0.20
2019-01-28T10:00:43.134Z,0.41
2019-01-28T10:03:10.542Z,0.58
2019-01-28T10:05:37.984Z,1.33
2019-01-28T10:08:06.336Z,0.96
2019-01-28T10:10:33.716Z,0.24
2019-01-28T10:13:01.051Z,-0.04
2019-01-28T10:15:29.156Z,0.85
2019-01-28T10:17:56.597Z,1.37
2019-01-28T10:20:29.574Z,1.71
2019-01-28T10:22:57.073Z,1.22
2019-01-28T10:25:25.163Z,0.62
2019-01-28T10:27:52.702Z,0.78
2019-01-28T10:30:23.650Z,0.89
2019-01-28T10:32:51.079Z,1.07
2019-01-28T10:35:20.613Z,0.90
2019-01-28T10:37:47.983Z,1.08
2019-01-28T10:40:18.752Z,0.91
2019-01-28T10:42:46.197Z,1.35
2019-01-28T10:45:13.694Z,1.16
2019-01-28T10:47:41.052Z,1.43
2019-01-28T10:50:09.890Z,1.34
2019-01-28T10:52:37.228Z,0.94
2019-01-28T10:55:04.861Z,0.88
2019-01-28T10:57:32.925Z,1.39
2019-01-28T11:00:00.265Z,1.80
2019-01-28T11:02:27.632Z,2.02
2019-01-28T11:04:55.037Z,1.35
2019-01-28T11:07:22.390Z,1.83
2019-01-28T11:09:49.730Z,0.96
2019-01-28T11:12:17.161Z,0.67
2019-01-28T11:14:44.670Z,1.57
2019-01-28T11:17:12.191Z,1.74
2019-01-28T11:19:39.711Z,0.89
2019-01-28T11:22:07.222Z,0.89
2019-01-28T11:24:34.708Z,0.87
2019-01-28T11:27:04.234Z,1.09
2019-01-28T11:29:31.992Z,0.95
2019-01-28T11:32:02.126Z,1.28
2019-01-28T11:34:29.475Z,1.32
2019-01-28T11:36:56.906Z,1.13
2019-01-28T11:39:24.314Z,1.39
2019-01-28T11:41:51.864Z,1.57
2019-01-28T11:44:19.359Z,1.26
2019-01-28T11:46:46.835Z,1.57
2019-01-28T11:49:14.365Z,1.66
2019-01-28T11:51:41.785Z,1.51
2019-01-28T11:54:09.980Z,0.86
2019-01-28T11:56:37.465Z,0.75
2019-01-28T11:59:04.987Z,1.37
2019-01-28T12:01:33.159Z,1.71
2019-01-28T12:04:00.554Z,1.69
2019-01-28T12:06:28.079Z,1.58
2019-01-28T12:08:55.576Z,1.25
2019-01-28T12:11:22.997Z,1.31
2019-01-28T12:13:50.356Z,1.26
2019-01-28T12:16:17.896Z,0.97
2019-01-28T12:18:45.354Z,1.06
2019-01-28T12:21:13.024Z,1.26
2019-01-28T12:23:40.543Z,0.95
2019-01-28T12:26:07.923Z,0.96
2019-01-28T12:28:35.345Z,1.13
2019-01-28T12:31:02.800Z,1.36
2019-01-28T12:33:30.211Z,1.43
2019-01-28T12:35:57.663Z,1.72
2019-01-28T12:38:25.035Z,2.07
2019-01-28T12:40:52.407Z,2.35
2019-01-28T12:43:19.840Z,2.41
2019-01-28T12:45:47.230Z,1.92
2019-01-28T12:48:15.083Z,2.39
2019-01-28T12:50:42.473Z,2.37
2019-01-28T12:53:09.873Z,2.31
2019-01-28T12:55:37.275Z,2.21
2019-01-28T12:58:04.665Z,2.32
2019-01-28T13:00:39.350Z,2.24
2019-01-28T13:03:07.138Z,2.57
2019-01-28T13:05:34.656Z,2.82
2019-01-28T13:08:02.099Z,2.88
2019-01-28T13:10:29.547Z,3.01
2019-01-28T13:12:56.962Z,3.06
2019-01-28T13:15:26.237Z,2.85
2019-01-28T13:17:54.500Z,2.68
2019-01-28T13:20:22.258Z,2.84
2019-01-28T13:22:50.427Z,3.22
2019-01-28T13:25:18.475Z,2.51
2019-01-28T13:27:45.904Z,2.40
2019-01-28T13:30:18.975Z,1.69
2019-01-28T13:32:46.497Z,1.69
2019-01-28T13:35:13.994Z,1.39
2019-01-28T13:37:41.377Z,1.44
2019-01-28T13:40:09.423Z,1.52
2019-01-28T13:42:36.859Z,1.43
2019-01-28T13:45:05.058Z,1.61
2019-01-28T13:47:32.444Z,1.22
2019-01-28T13:49:59.847Z,1.44
2019-01-28T13:52:27.247Z,1.31
2019-01-28T13:54:54.658Z,1.03
2019-01-28T13:57:22.059Z,1.08
2019-01-28T13:59:49.446Z,1.37
2019-01-28T14:02:16.944Z,1.27
2019-01-28T14:04:44.517Z,1.21
2019-01-28T14:07:11.942Z,1.34
2019-01-28T14:09:39.369Z,1.48
2019-01-28T14:12:06.786Z,1.14
2019-01-28T14:14:34.256Z,0.90
2019-01-28T14:17:01.716Z,1.29
2019-01-28T14:19:29.096Z,1.27
2019-01-28T14:21:56.485Z,0.90
2019-01-28T14:24:23.978Z,0.75
2019-01-28T14:26:51.351Z,1.04
2019-01-28T14:29:18.890Z,1.00
2019-01-28T14:31:46.500Z,0.90
2019-01-28T14:34:14.055Z,0.63
2019-01-28T14:36:41.550Z,0.76
2019-01-28T14:39:13.746Z,0.89
2019-01-28T14:41:40.244Z,0.95
2019-01-28T14:44:07.648Z,0.75
2019-01-28T14:46:35.299Z,0.66
2019-01-28T14:49:02.746Z,0.62
2019-01-28T14:51:30.180Z,0.62
2019-01-28T14:53:57.808Z,0.37
2019-01-28T14:56:25.251Z,0.39
2019-01-28T14:58:52.706Z,0.43
2019-01-28T15:01:20.266Z,0.53
2019-01-28T15:03:47.640Z,0.19
2019-01-28T15:06:15.157Z,0.03
2019-01-28T15:08:42.692Z,0.11
2019-01-28T15:11:10.187Z,0.19
2019-01-28T15:13:39.889Z,0.28
2019-01-28T15:16:09.186Z,0.41
2019-01-28T15:18:36.996Z,0.28
2019-01-28T15:21:04.576Z,0.38
2019-01-28T15:23:32.073Z,0.25
2019-01-28T15:25:59.472Z,0.10
2019-01-28T15:28:27.018Z,0.07
2019-01-28T15:30:54.754Z,-0.12
2019-01-28T15:33:22.413Z,-0.03
2019-01-28T15:35:49.944Z,-0.21
2019-01-28T15:38:17.532Z,-0.29
2019-01-28T15:40:44.999Z,-0.45
2019-01-28T15:43:12.822Z,-0.41
2019-01-28T15:45:42.259Z,-0.33
2019-01-28T15:48:09.695Z,-0.27
2019-01-28T15:50:37.465Z,-0.33
2019-01-28T15:53:07.056Z,-0.48
2019-01-28T15:55:36.798Z,-0.21
2019-01-28T15:58:05.253Z,-0.07
2019-01-28T16:00:33.795Z,-0.43
2019-01-28T16:03:01.923Z,-0.65
2019-01-28T16:05:29.757Z,-0.58
2019-01-28T16:07:57.316Z,-0.50
2019-01-28T16:10:24.911Z,-0.58
2019-01-28T16:12:52.583Z,-0.60
2019-01-28T16:15:23.183Z,-0.58
2019-01-28T16:17:51.137Z,-0.58
2019-01-28T16:20:18.913Z,-0.71
2019-01-28T16:22:46.980Z,-0.61
2019-01-28T16:25:14.881Z,-0.63
2019-01-28T16:27:42.521Z,-0.71
2019-01-28T16:30:16.608Z,-0.74
2019-01-28T16:32:44.581Z,-0.76
2019-01-28T16:35:13.113Z,-0.88
2019-01-28T16:37:41.222Z,-0.89
2019-01-28T16:40:11.249Z,-0.62
2019-01-28T16:42:38.839Z,-0.40
2019-01-28T16:45:08.284Z,-0.66
2019-01-28T16:47:36.283Z,-0.68
2019-01-28T16:50:05.688Z,-0.78
2019-01-28T16:52:34.222Z,-0.85
2019-01-28T16:55:02.110Z,-0.74
2019-01-28T16:57:30.320Z,-0.83
2019-01-28T16:59:58.046Z,-0.92
2019-01-28T17:02:25.968Z,-1.02
2019-01-28T17:04:53.832Z,-1.00
2019-01-28T17:07:21.612Z,-1.06
2019-01-28T17:09:49.521Z,-1.08
2019-01-28T17:12:17.438Z,-1.18
2019-01-28T17:14:45.522Z,-1.17
2019-01-28T17:17:13.263Z,-1.13
2019-01-28T17:19:41.259Z,-1.14
2019-01-28T17:22:08.987Z,-0.16
2019-01-28T17:24:36.729Z,-0.67
2019-01-28T17:27:04.888Z,-0.88
2019-01-28T17:29:32.697Z,-1.08
2019-01-28T17:32:00.334Z,-1.08
2019-01-28T17:34:28.158Z,-1.08
2019-01-28T17:36:57.598Z,-1.09
2019-01-28T17:39:25.411Z,-0.99
2019-01-28T17:41:53.193Z,-1.03
2019-01-28T17:44:20.913Z,-0.95
2019-01-28T17:46:48.737Z,-0.98
2019-01-28T17:49:17.276Z,-1.09
2019-01-28T17:51:45.046Z,-1.20
2019-01-28T17:54:13.067Z,-1.14
2019-01-28T17:56:41.630Z,-1.23
2019-01-28T17:59:09.561Z,-1.19
2019-01-28T18:01:37.520Z,-1.21
2019-01-28T18:04:05.514Z,-1.15
2019-01-28T18:06:33.739Z,-1.12
2019-01-28T18:09:01.703Z,-1.09
2019-01-28T18:11:29.677Z,-0.43
2019-01-28T18:13:57.756Z,0.59
2019-01-28T18:16:25.893Z,1.09
2019-01-28T18:18:53.999Z,0.63
2019-01-28T18:21:23.421Z,-0.01
2019-01-28T18:23:53.082Z,-0.40
2019-01-28T18:26:21.320Z,-0.60
2019-01-28T18:28:49.258Z,-0.46
2019-01-28T18:31:17.323Z,-0.55
2019-01-28T18:33:45.080Z,-0.79
2019-01-28T18:36:13.499Z,-0.58
2019-01-28T18:38:41.383Z,-0.62
2019-01-28T18:41:10.301Z,-0.79
2019-01-28T18:43:38.327Z,-0.89
2019-01-28T18:46:06.563Z,-0.93
2019-01-28T18:48:34.961Z,-0.79
2019-01-28T18:51:03.088Z,-0.79
2019-01-28T18:53:31.252Z,-0.75
2019-01-28T18:55:59.245Z,-0.73
2019-01-28T18:58:29.521Z,-0.90
2019-01-28T19:00:57.493Z,-0.83
2019-01-28T19:03:25.495Z,-0.79
2019-01-28T19:06:31.180Z,-0.99
2019-01-28T19:09:09.813Z,-1.03
2019-01-28T19:11:56.429Z,-1.07
2019-01-28T19:14:42.454Z,-1.12
2019-01-28T19:17:25.881Z,-1.01
2019-01-28T19:20:03.341Z,-0.76
2019-01-28T19:22:31.390Z,-0.92
2019-01-28T19:24:59.571Z,-0.89
2019-01-28T19:27:27.675Z,-0.89
2019-01-28T19:29:55.828Z,-0.95
2019-01-28T19:32:23.866Z,-0.93
2019-01-28T19:34:52.128Z,-1.05
2019-01-28T19:37:20.249Z,-1.01
2019-01-28T19:39:48.337Z,-1.09
2019-01-28T19:42:17.631Z,-1.14
2019-01-28T19:44:45.563Z,-1.11
2019-01-28T19:47:13.636Z,-1.11
2019-01-28T19:49:41.644Z,-1.11
2019-01-28T19:52:09.671Z,-1.08
2019-01-28T19:54:37.608Z,-0.97
2019-01-28T19:57:05.569Z,-0.94
2019-01-28T19:59:33.591Z,-0.63
2019-01-28T20:02:01.647Z,-0.71
2019-01-28T20:04:29.618Z,-0.68
2019-01-28T20:06:58.656Z,-0.73
2019-01-28T20:09:47.526Z,-0.51
2019-01-28T20:12:15.542Z,-0.51
2019-01-28T20:14:43.496Z,-0.60
2019-01-28T20:17:11.418Z,-0.57
2019-01-28T20:19:39.924Z,-0.71
2019-01-28T20:22:07.938Z,-0.74
2019-01-28T20:24:37.251Z,-0.73
2019-01-28T20:27:05.233Z,-0.74
2019-01-28T20:29:33.499Z,-0.60
2019-01-28T20:32:22.179Z,-0.52
2019-01-28T20:34:50.484Z,-0.58
2019-01-28T20:37:19.827Z,-0.66
2019-01-28T20:39:48.011Z,-0.79
2019-01-28T20:42:16.132Z,-0.86
2019-01-28T20:44:46.478Z,-0.88
2019-01-28T20:47:14.493Z,-0.86
2019-01-28T20:49:42.523Z,-0.89
2019-01-28T20:52:14.616Z,-0.89
2019-01-28T20:54:42.924Z,-0.86
2019-01-28T20:57:10.969Z,-0.73
2019-01-28T20:59:38.993Z,-0.68
2019-01-28T21:02:07.075Z,-0.74
2019-01-28T21:04:35.008Z,-0.86
2019-01-28T21:07:02.892Z,-0.87
2019-01-28T21:09:31.406Z,-0.79
2019-01-28T21:11:59.234Z,-0.81
2019-01-28T21:14:26.933Z,-0.84
2019-01-28T21:16:55.413Z,-0.90
2019-01-28T21:19:23.053Z,-0.74
2019-01-28T21:21:51.198Z,-0.76
2019-01-28T21:24:18.926Z,-0.66
2019-01-28T21:26:46.720Z,-0.60
2019-01-28T21:29:14.684Z,-0.61
2019-01-28T21:31:42.618Z,-0.61
2019-01-28T21:34:10.367Z,-0.68
2019-01-28T21:37:08.533Z,-0.69
2019-01-28T21:39:36.518Z,-0.62
2019-01-28T21:42:04.517Z,-0.57
2019-01-28T21:44:32.114Z,-0.46
2019-01-28T21:46:59.583Z,-0.37
2019-01-28T21:49:27.018Z,-0.60
2019-01-28T21:51:54.550Z,-0.85
2019-01-28T21:54:21.978Z,-0.89
2019-01-28T21:56:49.492Z,-0.89
2019-01-28T21:59:16.987Z,-0.92
2019-01-28T22:01:44.483Z,-0.89
2019-01-28T22:04:11.983Z,-0.85
2019-01-28T22:06:39.463Z,-0.81
2019-01-28T22:09:08.631Z,-0.87
2019-01-28T22:11:36.035Z,-0.86
2019-01-28T22:14:05.218Z,-0.86
2019-01-28T22:16:32.615Z,-0.95
2019-01-28T22:19:00.046Z,-0.78
2019-01-28T22:21:27.595Z,-0.72
2019-01-28T22:23:55.078Z,-0.62
2019-01-28T22:26:22.537Z,-0.48
2019-01-28T22:28:49.966Z,-0.58
2019-01-28T22:31:17.406Z,-0.69
2019-01-28T22:33:44.844Z,-0.78
2019-01-28T22:36:12.251Z,-0.80
2019-01-28T22:38:39.677Z,-0.70
2019-01-28T22:41:07.112Z,-0.61
2019-01-28T22:43:34.520Z,-0.78
2019-01-28T22:46:01.998Z,-0.86
2019-01-28T22:48:29.406Z,-1.09
2019-01-28T22:50:56.806Z,-1.10
2019-01-28T22:53:24.240Z,-1.06
2019-01-28T22:55:51.639Z,-1.10
2019-01-28T22:58:19.012Z,-1.12
2019-01-28T23:01:00.429Z,-1.05
2019-01-28T23:03:28.632Z,-1.05
2019-01-28T23:05:56.698Z,-1.10
2019-01-28T23:08:24.114Z,-1.10
2019-01-28T23:10:51.560Z,-1.12
2019-01-28T23:13:18.966Z,-1.07
2019-01-28T23:15:46.365Z,-1.06
2019-01-28T23:18:13.775Z,-1.11
2019-01-28T23:20:41.185Z,-1.14
2019-01-28T23:23:08.616Z,-1.10
2019-01-28T23:25:36.142Z,-1.16
2019-01-28T23:28:04.061Z,-1.09
2019-01-28T23:30:31.646Z,-1.09
2019-01-28T23:32:59.122Z,-1.07
2019-01-28T23:35:26.616Z,-1.10
2019-01-28T23:37:54.174Z,-1.07
2019-01-28T23:40:21.619Z,-1.03
2019-01-28T23:42:48.995Z,-1.00
2019-01-28T23:45:16.388Z,-1.01
2019-01-28T23:47:43.858Z,-1.10
2019-01-28T23:50:11.421Z,-1.12
2019-01-28T23:52:38.869Z,-1.07
2019-01-28T23:55:07.001Z,-1.22
2019-01-28T23:57:34.398Z,-1.23
